Latest Weather Observations for Busselton Airport

IDW60801

Issued at 11:23 am WST Sunday 10 May 2026 (issued every 10 minutes, with the page automatically refreshed every 10 minutes)

About weather observations | Map of weather stations | Latest weather observations for WA | Other Formats
Station Details ID: 009603 Name: BUSSELTON AERO Lat: -33.68 Lon: 115.40 Height: 16.3 m
Data from the previous 72 hours. | See also: Recent months at Busselton Airport
Date/Time
WST
Temp
°C
App
Temp
°C
Dew
Point
°C
Rel
Hum
%
Delta-T
°C
Wind Press
QNH
hPa
Press
MSL
hPa
Rain since
9am
mm
Dir  Spd
km/h
Gust
km/h
Spd
kts
Gust
kts
10/11:00am 18.9 13.5 9.4 54 5.0 N 28 37 15 20 1025.6 1025.5 0.0
10/10:30am 18.2 12.7 9.3 56 4.7 NNE 28 39 15 21 1025.7 1025.6 0.0
10/10:00am 18.1 14.1 9.2 56 4.6 NNE 20 32 11 17 1026.0 1025.9 0.0
10/09:30am 16.0 11.9 7.7 58 4.2 NE 19 22 10 12 1026.1 1026.0 0.0
10/09:00am 14.0 10.1 7.1 63 3.3 ENE 17 20 9 11 1026.2 1026.1 0.0
10/08:30am 12.4 9.5 6.5 67 2.8 ENE 11 15 6 8 1026.4 1026.3 0.0
10/08:00am 10.1 7.5 5.9 75 1.9 E 9 11 5 6 1026.3 1026.2 0.0
10/07:30am 7.0 4.3 3.6 79 1.4 E 7 9 4 5 1026.1 1026.0 0.0
10/07:00am 6.9 3.9 4.2 83 1.2 ENE 9 11 5 6 1025.8 1025.7 0.0
10/06:30am 5.9 1.9 3.1 82 1.2 E 13 13 7 7 1025.5 1025.4 0.0
10/06:00am 7.6 4.1 3.3 74 1.8 ENE 11 13 6 7 1025.5 1025.4 0.0
10/05:30am 8.8 6.1 3.8 71 2.2 ENE 7 9 4 5 1025.6 1025.5 0.0
10/05:00am 8.8 5.7 3.8 71 2.2 ENE 9 9 5 5 1025.2 1025.1 0.0
10/04:30am 8.9 5.8 3.7 70 2.3 ENE 9 11 5 6 1025.0 1024.9 0.0
10/04:00am 9.0 5.6 4.0 71 2.2 E 11 13 6 7 1024.9 1024.8 0.0
10/03:30am 8.3 5.1 3.2 70 2.2 ENE 9 13 5 7 1024.9 1024.8 0.0
10/03:00am 10.0 5.9 4.4 68 2.5 ENE 15 19 8 10 1024.8 1024.7 0.0
10/02:30am 8.8 5.3 3.6 70 2.2 ENE 11 13 6 7 1024.8 1024.7 0.0
10/02:00am 9.8 6.1 4.2 68 2.5 ENE 13 15 7 8 1024.8 1024.7 0.0
10/01:30am 9.7 5.9 4.1 68 2.5 ENE 13 15 7 8 1025.0 1024.9 0.0
10/01:00am 9.4 5.7 4.2 70 2.3 E 13 13 7 7 1025.0 1024.9 0.0
10/12:30am 9.3 5.5 3.7 68 2.4 E 13 13 7 7 1025.2 1025.1 0.0
10/12:00am 9.7 6.0 4.5 70 2.3 ENE 13 15 7 8 1025.4 1025.3 0.0
 
Date/Time
WST
Temp
°C
App
Temp
°C
Dew
Point
°C
Rel
Hum
%
Delta-T
°C
Wind Press
QNH
hPa
Press
MSL
hPa
Rain since
9am
mm
Dir  Spd
km/h
Gust
km/h
Spd
kts
Gust
kts
09/11:30pm 9.8 6.5 4.4 69 2.4 E 11 13 6 7 1025.6 1025.5 0.0
09/11:00pm 9.7 6.1 5.1 73 2.1 ENE 13 15 7 8 1025.6 1025.5 0.0
09/10:30pm 7.4 4.4 4.2 80 1.4 E 9 13 5 7 1025.8 1025.7 0.0
09/10:00pm 7.6 5.0 4.4 80 1.4 E 7 9 4 5 1025.9 1025.8 0.0
09/09:30pm 8.3 5.8 4.7 78 1.6 E 7 9 4 5 1025.9 1025.8 0.0
09/09:00pm 8.4 5.6 5.2 80 1.4 E 9 11 5 6 1025.8 1025.7 0.0
09/08:30pm 8.7 6.3 5.3 79 1.5 SE 7 9 4 5 1025.7 1025.6 0.0
09/08:00pm 10.2 8.2 6.2 76 1.8 SE 6 7 3 4 1025.7 1025.6 0.0
09/07:30pm 10.6 8.5 6.6 76 1.9 SE 7 9 4 5 1025.6 1025.5 0.0
09/07:00pm 11.1 8.5 6.0 71 2.4 ESE 9 11 5 6 1025.5 1025.4 0.0
09/06:30pm 11.5 8.5 6.2 70 2.5 ESE 11 13 6 7 1025.5 1025.4 0.0
09/06:00pm 13.7 11.9 7.2 65 3.2 ENE 6 7 3 4 1025.3 1025.2 0.0
09/05:30pm 18.0 16.8 8.0 52 5.1 NW 4 6 2 3 1025.2 1025.1 0.0
09/05:00pm 19.0 17.5 8.6 51 5.4 N 6 9 3 5 1025.1 1025.0 0.0
09/04:30pm 19.8 17.8 8.5 48 5.9 N 9 13 5 7 1025.1 1025.0 0.0
09/04:00pm 20.6 18.0 7.9 44 6.5 NNW 11 15 6 8 1025.1 1025.0 0.0
09/03:30pm 21.1 17.4 6.2 38 7.5 NNW 15 19 8 10 1025.1 1025.0 0.0
09/03:00pm 21.6 17.7 7.1 39 7.4 NNW 17 20 9 11 1025.0 1024.9 0.0
09/02:30pm 21.6 17.5 7.8 41 7.2 NNW 19 24 10 13 1025.0 1024.9 0.0
09/02:00pm 21.7 17.4 7.2 39 7.4 N 19 24 10 13 1024.9 1024.8 0.0
09/01:30pm 21.7 17.6 7.9 41 7.2 NE 19 35 10 19 1024.9 1024.8 0.0
09/01:00pm 21.4 17.0 7.3 40 7.2 NE 20 28 11 15 1025.0 1024.9 0.0
09/12:30pm 21.2 16.3 6.7 39 7.4 NE 22 32 12 17 1025.7 1025.6 0.0
09/12:00pm 20.5 14.8 6.5 40 7.0 NNE 26 35 14 19 1026.3 1026.2 0.0
09/11:30am 19.6 14.3 6.7 43 6.5 NNE 24 33 13 18 1027.1 1027.0 0.0
09/11:00am 18.8 12.5 7.3 47 5.8 NNE 30 41 16 22 1027.6 1027.5 0.0
09/10:30am 18.1 13.7 7.2 49 5.5 NNE 20 30 11 16 1028.3 1028.2 0.0
09/10:00am 16.9 12.7 7.3 53 4.8 NNE 19 26 10 14 1028.5 1028.4 0.0
09/09:30am 15.7 11.3 7.2 57 4.2 NE 20 28 11 15 1028.5 1028.4 0.0
09/09:00am 14.3 10.4 7.1 62 3.5 NE 17 22 9 12 1028.6 1028.5 0.0
09/08:30am 12.9 8.4 6.3 64 3.1 ENE 19 24 10 13 1028.5 1028.4 0.0
09/08:00am 11.5 6.9 5.8 68 2.6 ENE 19 24 10 13 1028.3 1028.2 0.0
09/07:30am 10.4 6.1 5.4 71 2.3 ENE 17 20 9 11 1028.2 1028.1 0.0
09/07:00am 9.9 5.5 4.9 71 2.2 ENE 17 22 9 12 1028.1 1028.0 0.0
09/06:30am 10.0 5.3 5.0 71 2.3 ENE 19 22 10 12 1028.0 1027.9 0.0
09/06:00am 9.8 5.4 4.8 71 2.2 ENE 17 22 9 12 1027.8 1027.7 0.0
09/05:30am 10.3 5.6 5.1 70 2.4 ENE 19 20 10 11 1027.7 1027.6 0.0
09/05:00am 10.3 6.0 5.3 71 2.3 ENE 17 20 9 11 1027.7 1027.6 0.0
09/04:30am 10.4 6.1 5.2 70 2.4 E 17 19 9 10 1027.6 1027.5 0.0
09/04:00am 10.9 7.0 5.2 68 2.6 E 15 20 8 11 1027.4 1027.3 0.0
09/03:30am 11.2 7.3 5.3 67 2.7 E 15 20 8 11 1027.4 1027.3 0.0
09/03:00am 11.3 7.1 5.6 68 2.6 E 17 20 9 11 1027.5 1027.4 0.0
09/02:30am 10.6 7.1 5.4 70 2.4 E 13 15 7 8 1027.5 1027.4 0.0
09/02:00am 10.2 7.3 4.8 69 2.4 ENE 9 13 5 7 1027.5 1027.4 0.0
09/01:30am 11.7 8.2 5.6 66 2.8 E 13 17 7 9 1027.4 1027.3 0.0
09/01:00am 11.5 8.4 5.4 66 2.8 E 11 13 6 7 1027.5 1027.4 0.0
09/12:30am 11.4 7.9 5.3 66 2.8 E 13 17 7 9 1027.4 1027.3 0.0
09/12:00am 12.8 8.6 5.9 63 3.2 E 17 20 9 11 1027.2 1027.1 0.0
 
Date/Time
WST
Temp
°C
App
Temp
°C
Dew
Point
°C
Rel
Hum
%
Delta-T
°C
Wind Press
QNH
hPa
Press
MSL
hPa
Rain since
9am
mm
Dir  Spd
km/h
Gust
km/h
Spd
kts
Gust
kts
08/11:30pm 13.1 9.0 6.0 62 3.4 E 17 20 9 11 1027.4 1027.3 0.0
08/11:00pm 11.5 8.1 5.8 68 2.6 E 13 17 7 9 1027.6 1027.5 0.0
08/10:30pm 12.0 9.4 6.1 67 2.8 E 9 11 5 6 1028.0 1027.9 0.0
08/10:00pm 12.4 9.1 6.5 67 2.8 E 13 15 7 8 1027.9 1027.8 0.0
08/09:30pm 12.7 9.8 6.5 66 3.0 E 11 13 6 7 1027.9 1027.8 0.0
08/09:00pm 12.5 9.7 7.0 69 2.6 E 11 15 6 8 1027.7 1027.6 0.0
08/08:30pm 11.6 8.8 6.9 73 2.2 SE 11 13 6 7 1027.4 1027.3 0.0
08/08:00pm 12.9 10.3 7.8 71 2.5 ESE 11 13 6 7 1027.4 1027.3 0.0
08/07:30pm 13.2 10.2 7.9 70 2.6 ESE 13 13 7 7 1027.4 1027.3 0.0
08/07:00pm 13.2 10.3 8.1 71 2.5 SE 13 13 7 7 1027.4 1027.3 0.0
08/06:30pm 13.6 11.1 8.0 69 2.8 SE 11 13 6 7 1027.5 1027.4 0.0
08/06:00pm 15.3 13.6 8.3 63 3.5 ESE 7 9 4 5 1027.5 1027.4 0.0
08/05:30pm 18.1 15.8 8.9 55 4.8 ENE 11 13 6 7 1027.3 1027.2 0.0
08/05:00pm 19.8 16.8 9.4 51 5.5 E 15 19 8 10 1027.1 1027.0 0.0
08/04:30pm 20.8 16.8 9.1 47 6.2 ENE 20 26 11 14 1026.9 1026.8 0.0
08/04:00pm 21.3 17.0 9.5 47 6.3 E 22 30 12 16 1026.9 1026.8 0.0
08/03:30pm 21.7 18.0 10.2 48 6.3 E 20 26 11 14 1027.0 1026.9 0.0
08/03:00pm 21.8 18.4 10.6 49 6.1 ENE 19 26 10 14 1027.2 1027.1 0.0
08/02:30pm 21.5 17.9 10.6 50 6.0 ENE 20 30 11 16 1027.3 1027.2 0.0
08/02:00pm 20.3 16.9 9.2 49 5.8 E 17 24 9 13 1027.7 1027.6 0.0
08/01:30pm 20.9 18.5 10.1 50 5.8 ENE 13 20 7 11 1028.0 1027.9 0.0
08/01:00pm 20.5 17.4 10.3 52 5.5 ENE 17 28 9 15 1028.5 1028.4 0.0
08/12:30pm 20.3 16.8 10.1 52 5.5 NE 19 26 10 14 1029.0 1028.9 0.0
08/12:00pm 20.3 16.8 11.0 55 5.1 ENE 20 30 11 16 1029.6 1029.6 0.0
08/11:30am 19.5 15.4 10.2 55 5.0 NE 22 32 12 17 1030.2 1030.2 0.0
08/11:00am 18.9 15.3 10.7 59 4.4 NE 20 26 11 14 1030.4 1030.4 0.0
08/10:30am 18.2 13.9 10.8 62 4.0 ENE 24 33 13 18 1030.7 1030.7 0.0
08/10:00am 17.2 13.7 11.0 67 3.3 ENE 20 28 11 15 1031.0 1031.0 0.0
08/09:30am 15.9 11.8 10.2 69 3.0 ENE 22 30 12 16 1031.4 1031.4 0.0
08/09:00am 14.9 11.2 10.1 73 2.5 E 20 26 11 14 1031.5 1031.5 0.0
08/08:30am 14.1 10.3 9.7 75 2.3 E 20 28 11 15 1031.5 1031.5 0.0
08/08:00am 13.1 9.1 9.2 77 2.0 E 20 28 11 15 1031.4 1031.4 0.0
08/07:30am 12.2 7.8 8.9 80 1.7 E 22 30 12 16 1031.1 1031.1 0.0
08/07:00am 11.6 8.0 8.5 81 1.5 E 17 24 9 13 1030.8 1030.8 0.0
08/06:30am 11.7 7.6 8.6 81 1.5 E 20 28 11 15 1030.7 1030.7 0.0
08/06:00am 11.2 7.5 8.1 81 1.5 E 17 24 9 13 1030.7 1030.7 0.0
08/05:30am 11.2 7.9 8.1 81 1.5 E 15 20 8 11 1030.7 1030.7 0.0
08/05:00am 11.4 7.3 7.9 79 1.7 E 19 22 10 12 1030.6 1030.6 0.0
08/04:30am 10.8 7.4 7.5 80 1.6 E 15 19 8 10 1030.4 1030.4 0.0
08/04:00am 11.5 7.8 7.8 78 1.8 E 17 20 9 11 1030.5 1030.5 0.0
08/03:30am 11.4 8.0 7.5 77 1.9 E 15 19 8 10 1030.5 1030.5 0.0
08/03:00am 10.6 7.4 6.9 78 1.7 ESE 13 17 7 9 1030.6 1030.6 0.0
08/02:30am 11.6 8.1 7.3 75 2.1 ESE 15 17 8 9 1030.4 1030.4 0.0
08/02:00am 10.8 7.2 6.9 77 1.8 ESE 15 20 8 11 1030.5 1030.5 0.0
08/01:30am 9.1 6.1 6.0 81 1.4 SE 11 13 6 7 1030.5 1030.5 0.0
08/01:00am 9.7 6.4 6.2 79 1.6 ESE 13 15 7 8 1030.6 1030.6 0.0
08/12:30am 9.1 5.8 6.2 82 1.3 SE 13 15 7 8 1030.5 1030.5 0.0
08/12:00am 8.8 5.4 5.7 81 1.4 SE 13 15 7 8 1030.6 1030.6 0.0
 
Date/Time
WST
Temp
°C
App
Temp
°C
Dew
Point
°C
Rel
Hum
%
Delta-T
°C
Wind Press
QNH
hPa
Press
MSL
hPa
Rain since
9am
mm
Dir  Spd
km/h
Gust
km/h
Spd
kts
Gust
kts
07/11:30pm 10.4 7.8 6.0 74 2.0 SE 9 9 5 5 1030.6 1030.6 0.0
07/11:00pm 11.6 9.5 6.5 71 2.4 SE 7 9 4 5 1030.7 1030.7 0.0
07/10:30pm 12.1 9.7 7.0 71 2.4 ESE 9 11 5 6 1030.7 1030.7 0.0
07/10:00pm 11.4 8.2 6.9 74 2.1 ESE 13 13 7 7 1030.5 1030.5 0.0
07/09:30pm 11.1 7.9 6.8 75 2.0 ESE 13 13 7 7 1030.4 1030.4 0.0
07/09:00pm 11.7 9.0 7.4 75 2.1 SE 11 13 6 7 1030.1 1030.1 0.0
07/08:30pm 12.8 10.6 7.9 72 2.4 SE 9 11 5 6 1030.0 1030.0 0.0
07/08:00pm 13.2 10.2 7.9 70 2.6 SE 13 13 7 7 1029.8 1029.8 0.0
07/07:30pm 14.4 11.9 8.1 66 3.1 SE 11 15 6 8 1029.8 1029.8 0.0
07/07:00pm 13.8 10.5 8.0 68 2.9 SE 15 17 8 9 1029.5 1029.5 0.0
07/06:30pm 14.9 12.1 8.4 65 3.3 SE 13 17 7 9 1029.2 1029.1 0.0
07/06:00pm 15.2 12.0 8.4 64 3.4 SE 15 17 8 9 1029.1 1029.0 0.0
07/05:30pm 16.6 13.4 8.6 59 4.1 SE 15 17 8 9 1029.0 1028.9 0.0
07/05:00pm 18.1 15.5 9.5 57 4.5 SE 13 17 7 9 1029.1 1029.0 0.0
07/04:30pm 19.6 16.3 9.5 52 5.4 ESE 17 20 9 11 1029.2 1029.1 0.0
07/04:00pm 20.4 17.1 9.6 50 5.7 E 17 22 9 12 1029.3 1029.2 0.0
07/03:30pm 20.8 16.5 9.4 48 6.1 ESE 22 30 12 16 1029.4 1029.3 0.0
07/03:00pm 21.1 17.3 9.7 48 6.1 E 20 26 11 14 1029.5 1029.5 0.0
07/02:30pm 20.7 16.6 8.7 46 6.3 E 20 28 11 15 1029.7 1029.7 0.0
07/02:00pm 20.8 17.8 9.4 48 6.0 ENE 15 22 8 12 1029.9 1029.9 0.0
07/01:30pm 20.5 17.5 9.4 49 5.9 ENE 15 22 8 12 1030.3 1030.3 0.0
07/01:00pm 19.9 17.0 9.8 52 5.4 ENE 15 24 8 13 1030.7 1030.7 0.0
07/12:30pm 19.7 16.3 9.0 50 5.6 ENE 17 24 9 13 1031.1 1031.1 0.0
07/12:00pm 19.5 15.9 9.7 53 5.2 ENE 19 28 10 15 1031.5 1031.5 0.0
07/11:30am 19.2 14.7 9.9 55 5.0 ENE 24 32 13 17 1032.0 1032.0 0.0

Other formats

Comma delimited format used in spreadsheet applications
http://www.bom.gov.au/fwo/IDW60801/IDW60801.95611.axf

JavaScript Object Notation format (JSON) in row-major order
http://www.bom.gov.au/fwo/IDW60801/IDW60801.95611.json

Data quality

Most of these data are generated automatically and are frequently updated. Quality checks on data are not normally performed. It is possible for incorrect values to appear. Refer to information at About Latest Weather Observations and please check the disclaimer before using these data.